Time;durP1;ratioP1;P1;durP2;ratioP2;P2;SDS_P1;SDS_P2;PMS_P1;PMS_P2;Temp;Humidity;BMP_temperature;BMP_pressure;BME280_temperature;BME280_humidity;BME280_pressure;Samples;Min_cycle;Max_cycle;Signal;HPM_P1;HPM_P2
2022/07/27 00:01:57;;;;;;;4.80;1.57;;;;;;;13.19;78.15;101855.78;5283056;28;20071;-71
2022/07/27 00:04:29;;;;;;;5.40;1.97;;;;;;;13.10;77.92;101862.78;5282666;28;20025;-72
2022/07/27 00:07:00;;;;;;;5.27;1.70;;;;;;;13.14;78.69;101854.03;5282888;28;20039;-71
2022/07/27 00:09:31;;;;;;;5.23;1.73;;;;;;;13.24;78.31;101848.75;5264946;28;20459;-71
2022/07/27 00:12:03;;;;;;;6.10;1.70;;;;;;;13.17;78.76;101849.66;5282862;28;20463;-71
2022/07/27 00:14:34;;;;;;;4.53;1.60;;;;;;;13.02;79.50;101848.03;5283298;28;20110;-71
2022/07/27 00:17:06;;;;;;;4.73;1.67;;;;;;;13.18;78.47;101846.19;5282632;28;20028;-71
2022/07/27 00:19:37;;;;;;;5.60;1.80;;;;;;;13.04;79.23;101849.75;5282683;28;20032;-70
2022/07/27 00:22:08;;;;;;;7.90;1.97;;;;;;;12.89;79.47;101847.22;5282505;28;20040;-71
2022/07/27 00:24:40;;;;;;;4.83;2.30;;;;;;;12.83;79.41;101840.28;5282561;28;20036;-71
2022/07/27 00:27:11;;;;;;;3.90;2.03;;;;;;;12.82;80.21;101843.78;5265073;28;20079;-72
2022/07/27 00:29:44;;;;;;;5.33;2.47;;;;;;;12.83;80.16;101847.25;5282469;28;20451;-71
2022/07/27 00:32:15;;;;;;;;;;;;;;;12.81;78.36;101851.63;5282856;28;20037;-71
2022/07/27 00:34:47;;;;;;;7.00;2.30;;;;;;;12.59;80.84;101847.38;5282411;28;20019;-72
2022/07/27 00:37:19;;;;;;;6.68;2.30;;;;;;;12.71;81.45;101849.03;5282556;28;20033;-71
2022/07/27 00:39:50;;;;;;;7.97;2.17;;;;;;;12.50;81.77;101847.41;5282554;28;20396;-72
2022/07/27 00:42:26;;;;;;;6.83;2.80;;;;;;;12.44;82.11;101843.94;5282382;28;20030;-72
2022/07/27 00:44:58;;;;;;;7.85;2.63;;;;;;;12.58;82.73;101845.59;5264224;28;20091;-71
2022/07/27 00:47:30;;;;;;;5.23;2.40;;;;;;;12.50;83.01;101844.78;5285649;28;20458;-71
2022/07/27 00:50:01;;;;;;;6.63;2.20;;;;;;;12.42;83.10;101841.31;5287133;28;20525;-71
2022/07/27 00:52:33;;;;;;;5.30;2.23;;;;;;;12.31;83.15;101841.34;5268301;28;20028;-72
2022/07/27 00:55:05;;;;;;;6.87;2.60;;;;;;;12.23;83.46;101845.72;5286686;28;20405;-72
2022/07/27 00:57:37;;;;;;;8.68;2.47;;;;;;;12.32;84.05;101842.25;5285784;28;20040;-71
2022/07/27 01:00:09;;;;;;;6.90;2.77;;;;;;;12.33;84.10;101843.97;5286185;28;20390;-71
2022/07/27 01:02:40;;;;;;;8.75;3.55;;;;;;;12.17;84.63;101840.50;5286171;28;20127;-70
2022/07/27 01:05:12;;;;;;;9.23;3.00;;;;;;;12.17;84.88;101837.91;5286763;28;20426;-71
2022/07/27 01:07:43;;;;;;;6.77;2.83;;;;;;;12.13;84.94;101844.03;5285805;28;20067;-71
2022/07/27 01:10:16;;;;;;;4.40;2.40;;;;;;;11.99;84.92;101842.31;5285867;28;20036;-71
2022/07/27 01:12:48;;;;;;;6.25;2.80;;;;;;;11.95;85.55;101843.19;5285756;28;20029;-71
2022/07/27 01:15:20;;;;;;;6.77;2.97;;;;;;;11.98;85.93;101840.56;5285970;28;20478;-71
2022/07/27 01:17:51;;;;;;;7.17;2.70;;;;;;;11.93;86.14;101841.44;5286007;28;20024;-71
2022/07/27 01:20:23;;;;;;;6.57;3.10;;;;;;;11.77;86.30;101841.44;5286188;28;20028;-71
2022/07/27 01:22:54;;;;;;;5.83;2.70;;;;;;;11.79;86.99;101846.66;5285858;28;20036;-71
2022/07/27 01:25:25;;;;;;;4.63;2.67;;;;;;;11.75;86.77;101837.97;5267877;28;20040;-71
2022/07/27 01:27:57;;;;;;;8.47;2.80;;;;;;;11.68;87.29;101839.69;5285794;28;20356;-71
2022/07/27 01:30:29;;;;;;;10.23;2.67;;;;;;;11.67;87.49;101840.56;5285895;28;20314;-72
2022/07/27 01:33:05;;;;;;;9.70;2.88;;;;;;;11.56;87.67;101850.16;5285529;28;20187;-72
2022/07/27 01:35:38;;;;;;;8.98;3.25;;;;;;;11.46;87.93;101849.28;5286052;28;20118;-72
2022/07/27 01:38:10;;;;;;;;;;;;;;;11.55;85.90;101851.00;5286485;28;20032;-72
2022/07/27 01:40:41;;;;;;;7.28;2.90;;;;;;;11.48;87.52;101850.13;5286010;28;19915;-72
2022/07/27 01:43:13;;;;;;;6.90;3.17;;;;;;;11.49;88.10;101841.44;5286033;28;20037;-72
2022/07/27 01:45:44;;;;;;;7.43;2.90;;;;;;;11.43;88.46;101835.34;5285665;28;20140;-72
2022/07/27 01:48:16;;;;;;;8.53;3.20;;;;;;;11.38;88.75;101835.34;5285138;28;20024;-72
2022/07/27 01:50:49;;;;;;;7.20;3.00;;;;;;;11.37;88.83;101832.75;5285119;28;20037;-72
2022/07/27 01:53:21;;;;;;;7.45;2.92;;;;;;;11.33;89.35;101834.47;5285946;28;20032;-72
2022/07/27 01:55:53;;;;;;;8.68;3.53;;;;;;;11.27;89.30;101837.06;5285457;28;20596;-72
2022/07/27 01:58:24;;;;;;;5.43;2.90;;;;;;;11.16;89.34;101839.66;5284983;28;20088;-72
2022/07/27 02:00:55;;;;;;;6.37;3.03;;;;;;;11.02;89.66;101837.03;5285360;28;20036;-72
2022/07/27 02:03:27;;;;;;;8.03;3.67;;;;;;;11.10;90.14;101837.03;5285069;28;20032;-72
2022/07/27 02:05:58;;;;;;;8.27;3.63;;;;;;;11.04;90.21;101826.59;5285483;28;20518;-73
2022/07/27 02:08:30;;;;;;;4.57;2.93;;;;;;;11.04;90.11;101831.81;5285486;28;20113;-72
2022/07/27 02:13:52;;;;;;;8.02;3.97;;;;;;;10.98;90.81;101837.91;5285589;28;20032;-72
2022/07/27 02:16:23;;;;;;;6.43;3.07;;;;;;;11.01;90.98;101837.91;5284977;28;20033;-72
2022/07/27 02:18:54;;;;;;;8.93;4.20;;;;;;;10.95;90.79;101824.84;5284940;28;20033;-72
2022/07/27 02:21:26;;;;;;;8.10;3.20;;;;;;;10.95;90.81;101828.31;5284755;28;20060;-72
2022/07/27 02:23:57;;;;;;;7.83;3.03;;;;;;;10.87;91.51;101823.97;5284320;28;20028;-72
2022/07/27 02:26:29;;;;;;;6.20;3.23;;;;;;;10.87;91.64;101822.22;5284577;28;20025;-71
2022/07/27 02:29:00;;;;;;;5.73;2.70;;;;;;;10.86;91.70;101819.59;5284497;28;20040;-71
2022/07/27 02:31:32;;;;;;;8.20;2.90;;;;;;;10.80;91.57;101816.97;5284588;28;20475;-71
2022/07/27 02:34:03;;;;;;;8.83;3.37;;;;;;;10.72;91.59;101819.53;5284928;28;20044;-71
2022/07/27 02:36:34;;;;;;;6.23;3.10;;;;;;;10.69;91.92;101815.22;5285111;28;20024;-71
2022/07/27 02:39:06;;;;;;;6.03;3.20;;;;;;;10.75;92.16;101825.66;5284647;28;20075;-70
2022/07/27 02:41:37;;;;;;;8.80;3.60;;;;;;;10.65;92.32;101818.66;5284690;28;20452;-71
2022/07/27 02:44:08;;;;;;;5.50;3.30;;;;;;;10.62;92.57;101823.00;5284382;28;20037;-71
2022/07/27 02:46:40;;;;;;;8.73;3.40;;;;;;;10.65;92.83;101812.59;5284074;28;20056;-71
2022/07/27 02:49:11;;;;;;;11.07;3.93;;;;;;;10.62;92.85;101815.19;5284794;28;20031;-71
2022/07/27 02:51:43;;;;;;;7.67;3.30;;;;;;;10.64;92.56;101818.66;5284039;28;20059;-71
2022/07/27 02:54:14;;;;;;;8.27;3.83;;;;;;;10.59;92.71;101823.84;5283805;28;20372;-71
2022/07/27 02:56:45;;;;;;;6.73;2.80;;;;;;;10.60;92.94;101819.53;5283897;28;20039;-70
2022/07/27 02:59:18;;;;;;;6.23;3.33;;;;;;;10.58;93.10;101819.50;5283899;28;20025;-70
2022/07/27 03:01:50;;;;;;;6.65;3.00;;;;;;;10.54;93.28;101816.00;5283561;28;20029;-71
2022/07/27 03:04:21;;;;;;;5.97;3.07;;;;;;;10.48;93.51;101813.41;5283771;28;20031;-71
2022/07/27 03:06:53;;;;;;;6.90;3.20;;;;;;;10.50;93.34;101816.88;5283760;28;20086;-71
2022/07/27 03:09:24;;;;;;;8.23;3.53;;;;;;;10.43;93.33;101822.03;5283106;28;20033;-71
2022/07/27 03:11:56;;;;;;;7.57;3.40;;;;;;;10.36;93.44;101824.63;5284173;28;20036;-71
2022/07/27 03:14:27;;;;;;;7.70;3.53;;;;;;;10.34;93.70;101822.88;5283809;28;20025;-71
2022/07/27 03:16:58;;;;;;;6.60;3.27;;;;;;;10.26;93.76;101822.81;5283390;28;20528;-71
2022/07/27 03:19:30;;;;;;;5.83;2.87;;;;;;;10.22;94.27;101824.53;5265469;28;20036;-71
2022/07/27 03:22:01;;;;;;;6.97;3.50;;;;;;;10.34;94.42;101828.09;5283087;28;20471;-71
2022/07/27 03:24:33;;;;;;;8.13;3.70;;;;;;;10.36;94.35;101823.75;5283589;28;20028;-71
2022/07/27 03:27:05;;;;;;;7.38;3.67;;;;;;;10.33;94.46;101832.41;5283764;28;20032;-70
2022/07/27 03:29:36;;;;;;;10.93;3.90;;;;;;;10.21;94.21;101825.38;5283451;28;20032;-71
2022/07/27 03:32:07;;;;;;;6.70;3.60;;;;;;;10.19;94.58;101819.31;5283185;28;20112;-70
2022/07/27 03:34:39;;;;;;;7.50;3.80;;;;;;;10.29;94.96;101830.66;5283744;28;20040;-70
2022/07/27 03:37:10;;;;;;;6.93;3.73;;;;;;;10.19;94.94;101821.03;5283446;28;20048;-71
2022/07/27 03:39:41;;;;;;;10.23;3.77;;;;;;;10.11;94.93;101825.31;5283473;28;20379;-71
2022/07/27 03:42:13;;;;;;;8.07;4.03;;;;;;;10.14;95.27;101827.94;5283423;28;20082;-71
2022/07/27 03:44:44;;;;;;;7.17;4.10;;;;;;;10.18;95.37;101821.91;5283110;28;20037;-71
2022/07/27 03:47:16;;;;;;;6.43;3.50;;;;;;;10.16;95.75;101823.63;5283182;28;20103;-71
2022/07/27 03:49:47;;;;;;;9.57;5.10;;;;;;;10.12;95.84;101822.72;5283430;28;20031;-71
2022/07/27 03:52:19;;;;;;;6.53;3.67;;;;;;;10.13;95.77;101829.69;5283352;28;20463;-71
2022/07/27 03:54:50;;;;;;;12.23;3.93;;;;;;;10.24;96.12;101832.38;5283554;28;20531;-71
2022/07/27 03:57:23;;;;;;;7.47;4.30;;;;;;;10.43;96.37;101835.94;5283015;28;20115;-72
2022/07/27 03:59:54;;;;;;;;;;;;;;;10.44;95.24;101829.00;5265775;28;20123;-71
2022/07/27 04:02:26;;;;;;;9.50;4.15;;;;;;;10.62;95.96;101831.69;5282738;28;20014;-71
2022/07/27 04:04:57;;;;;;;11.07;4.60;;;;;;;10.72;95.96;101829.97;5283296;28;20120;-70
2022/07/27 04:07:28;;;;;;;8.80;4.00;;;;;;;10.88;96.14;101834.41;5282826;28;20056;-71
2022/07/27 04:10:00;;;;;;;7.33;3.67;;;;;;;10.95;96.17;101837.88;5282690;28;20082;-71
2022/07/27 04:12:35;;;;;;;6.30;3.87;;;;;;;10.99;95.85;101837.00;5282744;28;20082;-71
2022/07/27 04:15:07;;;;;;;7.00;3.92;;;;;;;11.12;95.62;101830.97;5282605;28;20028;-71
2022/07/27 04:17:38;;;;;;;5.97;4.13;;;;;;;11.13;95.29;101834.44;5282461;28;20490;-71
2022/07/27 04:20:11;;;;;;;11.03;4.13;;;;;;;11.00;94.93;101830.06;5283019;28;20036;-71
2022/07/27 04:22:42;;;;;;;9.40;4.68;;;;;;;11.04;95.13;101826.59;5282166;28;20025;-70
2022/07/27 04:25:13;;;;;;;10.97;4.80;;;;;;;11.12;95.33;101828.38;5264419;28;20039;-73
2022/07/27 04:27:46;;;;;;;8.70;3.77;;;;;;;11.02;94.55;101834.41;5282003;28;20086;-73
2022/07/27 04:30:17;;;;;;;8.57;4.15;;;;;;;11.13;94.65;101834.44;5282126;28;20128;-73
2022/07/27 04:32:49;;;;;;;8.07;4.13;;;;;;;11.22;94.93;101831.84;5282479;28;20119;-73
2022/07/27 04:35:20;;;;;;;8.23;3.77;;;;;;;11.21;94.43;101844.91;5282391;28;20029;-72
2022/07/27 04:37:52;;;;;;;9.80;4.80;;;;;;;11.24;94.87;101840.56;5282196;28;20103;-72
2022/07/27 04:40:23;;;;;;;8.20;3.43;;;;;;;11.19;94.37;101839.69;5282828;28;20055;-73
2022/07/27 04:42:54;;;;;;;7.73;4.07;;;;;;;11.22;94.86;101836.19;5282169;28;20086;-73
2022/07/27 04:45:26;;;;;;;8.03;4.17;;;;;;;11.25;95.12;101837.09;5282253;28;20057;-73
2022/07/27 04:47:57;;;;;;;10.30;4.30;;;;;;;11.32;94.90;101841.44;5281838;28;20040;-72
2022/07/27 04:50:29;;;;;;;21.50;4.30;;;;;;;11.36;95.01;101844.91;5281868;28;20044;-72
2022/07/27 04:53:00;;;;;;;7.33;3.97;;;;;;;11.43;94.82;101851.00;5282387;28;20043;-72
2022/07/27 04:55:32;;;;;;;7.17;3.87;;;;;;;11.49;94.93;101853.63;5264231;28;20086;-73
2022/07/27 04:58:03;;;;;;;6.40;4.17;;;;;;;11.47;93.98;101860.59;5264368;28;20036;-72
2022/07/27 05:00:35;;;;;;;8.47;4.00;;;;;;;11.49;94.10;101858.84;5282226;28;20082;-72
2022/07/27 05:03:06;;;;;;;6.20;4.00;;;;;;;11.43;93.95;101859.72;5282578;28;20482;-73
2022/07/27 05:05:38;;;;;;;6.07;4.00;;;;;;;11.43;94.28;101851.88;5282383;28;20410;-72
2022/07/27 05:08:09;;;;;;;8.20;4.07;;;;;;;11.49;94.40;101858.84;5282834;28;20037;-73
2022/07/27 05:10:40;;;;;;;9.80;4.40;;;;;;;11.45;94.01;101859.72;5281928;28;20044;-73
2022/07/27 05:13:12;;;;;;;11.70;4.60;;;;;;;11.47;94.19;101863.19;5264588;28;20443;-73
2022/07/27 05:15:43;;;;;;;8.30;4.57;;;;;;;11.53;94.10;101865.81;5282159;28;20533;-73
2022/07/27 05:18:15;;;;;;;9.67;4.67;;;;;;;11.65;94.07;101863.19;5282675;28;20033;-73
2022/07/27 05:20:46;;;;;;;7.77;4.37;;;;;;;11.60;93.70;101864.06;5281925;28;20059;-76
2022/07/27 05:23:18;;;;;;;9.73;4.70;;;;;;;11.63;93.34;101870.16;5282532;28;20416;-72
2022/07/27 05:25:49;;;;;;;14.63;4.87;;;;;;;11.68;93.20;101875.38;5264193;28;20467;-73
2022/07/27 05:28:20;;;;;;;11.43;4.97;;;;;;;11.77;92.66;101877.13;5282145;28;20512;-73
2022/07/27 05:30:52;;;;;;;13.73;5.10;;;;;;;11.84;92.67;101884.09;5281717;28;20112;-73
2022/07/27 05:33:24;;;;;;;10.93;4.67;;;;;;;11.92;92.36;101890.22;5285014;28;20086;-73
2022/07/27 05:35:55;;;;;;;20.90;5.32;;;;;;;11.95;92.12;101892.84;5285248;28;20029;-73
2022/07/27 05:38:27;;;;;;;9.60;5.33;;;;;;;12.01;91.99;101882.38;5285804;28;20371;-73
2022/07/27 05:40:58;;;;;;;10.87;4.63;;;;;;;12.07;91.74;101880.63;5267229;28;20036;-73
2022/07/27 05:43:30;;;;;;;11.43;4.90;;;;;;;12.08;91.20;101878.00;5285777;28;20034;-73
2022/07/27 05:46:01;;;;;;;8.50;4.73;;;;;;;12.13;91.00;101878.00;5285710;28;20076;-73
2022/07/27 05:48:33;;;;;;;10.67;4.70;;;;;;;12.17;91.54;101882.34;5285142;28;20112;-73
2022/07/27 05:51:04;;;;;;;8.10;4.50;;;;;;;12.25;91.05;101885.81;5285316;28;20028;-73
2022/07/27 05:53:36;;;;;;;8.90;4.50;;;;;;;12.31;91.35;101888.41;5284768;28;20059;-73
2022/07/27 05:56:08;;;;;;;8.30;4.35;;;;;;;12.37;91.30;101893.63;5285008;28;20468;-72
2022/07/27 05:58:39;;;;;;;8.90;4.43;;;;;;;12.46;90.56;101891.84;5284917;28;20086;-72
2022/07/27 06:01:10;;;;;;;7.77;3.83;;;;;;;12.53;90.16;101896.22;5285373;28;20414;-72
2022/07/27 06:03:42;;;;;;;6.83;3.97;;;;;;;12.66;88.66;101894.44;5284983;28;20030;-73
2022/07/27 06:09:03;;;;;;;7.55;3.90;;;;;;;12.85;88.82;101893.47;5285052;28;20042;-73
2022/07/27 06:11:35;;;;;;;6.33;2.93;;;;;;;12.96;87.25;101893.44;5267083;28;20301;-73
2022/07/27 06:14:07;;;;;;;10.37;3.53;;;;;;;13.03;87.70;101899.50;5285185;28;20032;-73
2022/07/27 06:16:38;;;;;;;9.57;3.87;;;;;;;13.15;86.50;101902.03;5285022;28;20313;-73
2022/07/27 06:19:09;;;;;;;10.10;3.20;;;;;;;13.27;85.88;101898.50;5285241;28;20064;-73
2022/07/27 06:21:41;;;;;;;6.97;2.90;;;;;;;13.36;86.28;101902.81;5284764;28;20037;-73
2022/07/27 06:24:13;;;;;;;5.03;3.17;;;;;;;13.41;86.84;101899.31;5285065;28;20036;-73
2022/07/27 06:26:44;;;;;;;7.85;2.80;;;;;;;13.58;84.61;101898.31;5284684;28;20081;-73
2022/07/27 06:29:16;;;;;;;8.17;3.53;;;;;;;13.66;84.12;101899.13;5285225;28;20519;-73
2022/07/27 06:31:47;;;;;;;4.67;2.60;;;;;;;13.79;81.24;101905.13;5284625;28;20036;-73
2022/07/27 06:34:18;;;;;;;3.00;2.00;;;;;;;13.89;80.24;101898.91;5284728;28;20523;-73
2022/07/27 06:36:51;;;;;;;6.70;2.30;;;;;;;13.97;80.22;101907.56;5284297;28;20110;-73
2022/07/27 06:39:23;;;;;;;5.90;1.98;;;;;;;14.00;80.08;101904.06;5284727;28;20037;-73
2022/07/27 06:41:55;;;;;;;4.93;2.03;;;;;;;14.12;79.30;101898.72;5284447;28;20029;-73
2022/07/27 06:44:26;;;;;;;4.30;2.10;;;;;;;14.17;80.10;101904.78;5283340;28;20411;-73
2022/07/27 06:46:58;;;;;;;4.57;2.30;;;;;;;14.25;79.08;101902.09;5284193;28;20049;-73
2022/07/27 06:49:29;;;;;;;8.33;2.83;;;;;;;14.39;78.58;101901.94;5284132;28;20035;-72
2022/07/27 06:52:01;;;;;;;9.70;2.93;;;;;;;14.50;77.37;101894.81;5284112;28;20467;-72
2022/07/27 06:54:32;;;;;;;5.43;2.23;;;;;;;14.63;78.49;101905.22;5284004;28;20154;-73
2022/07/27 06:57:04;;;;;;;5.60;1.97;;;;;;;14.75;76.28;101907.69;5284907;28;20189;-72
2022/07/27 06:59:35;;;;;;;6.85;1.70;;;;;;;14.90;76.07;101907.47;5284127;28;20025;-72
2022/07/27 07:02:07;;;;;;;6.43;2.23;;;;;;;14.98;74.82;101901.28;5283592;28;20047;-74
2022/07/27 07:04:38;;;;;;;3.60;1.67;;;;;;;15.11;74.19;101910.72;5283683;28;20421;-74
2022/07/27 07:07:10;;;;;;;5.17;1.50;;;;;;;15.33;72.28;101911.28;5283912;28;20058;-73
2022/07/27 07:09:41;;;;;;;6.70;1.80;;;;;;;15.46;71.43;101915.47;5283857;28;20444;-72
2022/07/27 07:12:13;;;;;;;4.63;1.47;;;;;;;15.73;72.79;101922.94;5283732;28;20043;-72
2022/07/27 07:14:44;;;;;;;7.43;2.30;;;;;;;15.87;70.66;101923.63;5284325;28;20055;-73
2022/07/27 07:17:16;;;;;;;6.55;1.52;;;;;;;16.09;70.40;101920.63;5283400;28;20044;-72
2022/07/27 07:19:47;;;;;;;5.87;1.40;;;;;;;16.17;68.76;101911.69;5283618;28;20366;-72
2022/07/27 07:22:18;;;;;;;6.70;2.37;;;;;;;16.41;69.80;101914.78;5283291;28;20432;-72
2022/07/27 07:24:50;;;;;;;7.53;1.50;;;;;;;16.65;68.65;101916.06;5283873;28;20032;-72
2022/07/27 07:27:22;;;;;;;4.65;2.33;;;;;;;16.96;68.73;101918.09;5265282;28;20024;-73
2022/07/27 07:29:54;;;;;;;5.83;1.87;;;;;;;16.91;65.99;101931.34;5283256;28;20111;-73
2022/07/27 07:32:25;;;;;;;9.65;2.47;;;;;;;16.94;66.11;101926.00;5283218;28;20039;-73
2022/07/27 07:34:56;;;;;;;7.10;1.90;;;;;;;16.89;65.05;101927.88;5283121;28;20119;-73
2022/07/27 07:37:28;;;;;;;6.17;1.50;;;;;;;16.84;66.77;101926.19;5283104;28;20044;-72
2022/07/27 07:40:00;;;;;;;12.90;2.67;;;;;;;17.01;64.79;101936.44;5283086;28;20161;-72
2022/07/27 07:42:54;;;;;;;5.25;1.52;;;;;;;17.31;63.06;101925.22;5283307;28;20032;-73
2022/07/27 07:45:26;;;;;;;4.78;1.73;;;;;;;17.49;61.01;101921.28;5282975;28;20176;-72
2022/07/27 07:47:58;;;;;;;;;;;;;;;17.90;61.51;101936.16;5283530;28;20036;-72
2022/07/27 07:50:29;;;;;;;3.22;1.30;;;;;;;17.44;59.42;101938.13;5283221;28;19958;-72
2022/07/27 07:53:01;;;;;;;3.40;1.33;;;;;;;17.45;62.73;101927.53;5282943;28;20036;-73
2022/07/27 07:55:32;;;;;;;4.57;1.70;;;;;;;17.57;62.14;101930.78;5282646;28;20060;-73
2022/07/27 07:58:03;;;;;;;8.00;2.43;;;;;;;17.67;62.81;101927.00;5283761;28;20032;-73
2022/07/27 08:00:35;;;;;;;5.93;2.10;;;;;;;17.88;60.75;101932.69;5283210;28;20033;-73
2022/07/27 08:03:06;;;;;;;6.40;1.47;;;;;;;17.85;59.85;101939.75;5282760;28;20499;-72
2022/07/27 08:05:37;;;;;;;4.67;1.57;;;;;;;17.90;61.06;101941.44;5283052;28;20029;-72
2022/07/27 08:08:09;;;;;;;5.90;1.83;;;;;;;17.83;58.52;101943.34;5265164;28;20052;-72
2022/07/27 08:10:40;;;;;;;4.73;1.80;;;;;;;18.23;60.08;101945.00;5282883;28;20468;-73
2022/07/27 08:13:12;;;;;;;4.30;1.60;;;;;;;18.12;56.54;101947.91;5283212;28;20032;-73
2022/07/27 08:15:43;;;;;;;5.97;1.97;;;;;;;18.02;54.78;101943.78;5283466;28;20055;-72
2022/07/27 08:18:14;;;;;;;2.70;1.13;;;;;;;17.90;57.65;101955.47;5283578;28;20033;-73
2022/07/27 08:20:46;;;;;;;4.30;1.40;;;;;;;17.69;58.83;101951.56;5283339;28;20033;-73
2022/07/27 08:23:17;;;;;;;5.87;1.60;;;;;;;17.50;58.64;101944.09;5283095;28;20516;-72
2022/07/27 08:25:48;;;;;;;4.27;1.63;;;;;;;17.42;58.06;101942.53;5282686;28;20383;-72
2022/07/27 08:28:20;;;;;;;5.00;1.57;;;;;;;17.42;59.28;101945.16;5265468;28;20036;-73
2022/07/27 08:30:51;;;;;;;6.47;1.73;;;;;;;17.58;61.28;101937.78;5282766;28;20384;-73
2022/07/27 08:33:23;;;;;;;3.77;1.53;;;;;;;17.63;58.41;101949.09;5282488;28;20035;-73
2022/07/27 08:35:56;;;;;;;9.97;2.07;;;;;;;17.90;57.04;101941.44;5282535;28;20037;-72
2022/07/27 08:38:28;;;;;;;2.95;1.52;;;;;;;18.73;56.04;101926.03;5282941;28;20033;-73
2022/07/27 08:41:01;;;;;;;7.00;2.00;;;;;;;19.30;55.71;101933.16;5282740;28;20515;-73
2022/07/27 08:43:33;;;;;;;6.22;2.13;;;;;;;19.08;51.23;101921.50;5282356;28;20060;-73
2022/07/27 08:46:05;;;;;;;5.43;1.47;;;;;;;19.39;52.18;101928.50;5259997;28;20492;-73
2022/07/27 08:48:38;;;;;;;3.88;1.33;;;;;;;19.60;49.21;101933.09;5261552;28;20362;-73
2022/07/27 08:51:10;;;;;;;3.10;1.48;;;;;;;19.74;48.76;101930.00;5261622;28;20025;-73
2022/07/27 08:53:43;;;;;;;7.60;2.08;;;;;;;20.74;50.02;101929.19;5261518;28;20045;-72
2022/07/27 08:56:14;;;;;;;5.53;2.07;;;;;;;20.55;46.03;101928.13;5261681;28;20088;-73
2022/07/27 08:58:46;;;;;;;4.63;1.35;;;;;;;20.37;48.40;101930.50;5261445;28;20025;-73
2022/07/27 09:01:18;;;;;;;4.83;2.07;;;;;;;20.00;50.53;101947.66;5261262;28;20029;-73
2022/07/27 09:03:49;;;;;;;4.45;1.70;;;;;;;20.08;50.72;101946.56;5261276;28;20036;-73
2022/07/27 09:06:45;;;;;;;7.00;2.33;;;;;;;20.08;49.21;101950.06;5261560;28;20087;-74
2022/07/27 09:09:19;;;;;;;3.33;1.33;;;;;;;20.30;46.33;101947.53;5265966;28;20025;-74
2022/07/27 09:12:08;;;;;;;3.35;1.23;;;;;;;20.60;45.74;101944.69;5264922;28;20036;-73
2022/07/27 09:14:41;;;;;;;3.40;1.25;;;;;;;20.54;43.07;101944.91;5265151;28;20060;-73
2022/07/27 09:17:24;;;;;;;5.15;1.30;;;;;;;20.77;42.58;101944.13;5263778;28;20029;-73
2022/07/27 09:19:57;;;;;;;4.47;1.67;;;;;;;20.71;42.70;101933.75;5265595;28;20051;-73
2022/07/27 09:22:52;;;;;;;3.38;1.33;;;;;;;20.97;43.96;101940.72;5264754;28;20040;-73
2022/07/27 09:25:30;;;;;;;4.65;1.50;;;;;;;20.30;44.99;101944.91;5264410;28;20021;-73
2022/07/27 09:28:02;;;;;;;3.58;1.15;;;;;;;20.85;45.33;101943.81;5265255;28;20047;-74
2022/07/27 09:30:40;;;;;;;9.18;2.08;;;;;;;20.90;44.66;101944.53;5264766;28;20029;-73
2022/07/27 09:33:14;;;;;;;4.72;1.40;;;;;;;21.18;44.38;101949.63;5264782;28;20094;-74
2022/07/27 09:35:57;;;;;;;6.60;1.60;;;;;;;21.78;42.12;101941.09;5264667;28;20077;-73
2022/07/27 09:38:28;;;;;;;7.10;1.45;;;;;;;21.89;40.37;101945.94;5264659;28;20048;-72
2022/07/27 09:41:05;;;;;;;8.10;1.93;;;;;;;21.26;40.98;101947.53;5264897;28;20089;-73
2022/07/27 09:43:51;;;;;;;4.93;1.95;;;;;;;21.29;45.64;101949.22;5264472;28;20028;-73
2022/07/27 09:46:35;;;;;;;8.55;2.08;;;;;;;20.89;46.29;101954.25;5276244;28;20048;-73
2022/07/27 09:49:29;;;;;;;3.20;1.48;;;;;;;20.56;48.18;101956.34;5285857;28;20060;-73
2022/07/27 09:52:02;;;;;;;6.40;1.75;;;;;;;19.78;49.74;101944.88;5285129;28;20041;-73
2022/07/27 09:54:45;;;;;;;5.38;1.98;;;;;;;19.57;51.24;101942.91;5285721;28;20374;-73
2022/07/27 09:57:19;;;;;;;6.18;1.75;;;;;;;19.11;51.04;101935.50;5286188;28;20077;-72
2022/07/27 10:00:12;;;;;;;5.78;1.58;;;;;;;19.02;52.98;101941.03;5285151;28;20468;-73
2022/07/27 10:02:44;;;;;;;7.70;2.03;;;;;;;19.05;51.37;101950.69;5285049;28;20024;-73
2022/07/27 10:05:20;;;;;;;7.03;2.03;;;;;;;19.14;51.85;101945.09;5285445;28;20025;-73
2022/07/27 10:07:53;;;;;;;5.72;2.20;;;;;;;19.80;50.51;101948.34;5285128;28;20090;-73
2022/07/27 10:10:25;;;;;;;5.90;2.25;;;;;;;21.33;46.15;101950.81;5284894;28;20024;-73
2022/07/27 10:12:56;;;;;;;4.93;1.80;;;;;;;23.01;43.64;101946.34;5284715;28;20383;-74
2022/07/27 10:15:27;;;;;;;8.10;2.37;;;;;;;24.10;40.96;101945.50;5285589;28;20024;-73
2022/07/27 10:18:06;;;;;;;5.80;2.37;;;;;;;24.81;38.50;101946.25;5284356;28;20472;-73
2022/07/27 10:20:41;;;;;;;7.30;1.95;;;;;;;23.15;41.06;101940.38;5267380;28;20047;-73
2022/07/27 10:23:26;;;;;;;4.85;2.00;;;;;;;22.22;43.98;101947.16;5284557;28;20485;-72
2022/07/27 10:26:26;;;;;;;4.50;1.60;;;;;;;21.21;46.86;101943.34;5284794;28;20032;-73
2022/07/27 10:28:59;;;;;;;10.10;1.90;;;;;;;20.47;48.59;101940.78;5284965;28;20039;-73
2022/07/27 10:31:34;;;;;;;6.72;1.65;;;;;;;19.98;48.75;101938.03;5284578;28;20089;-73
2022/07/27 10:34:08;;;;;;;4.82;1.60;;;;;;;20.31;48.46;101929.88;5284545;28;20056;-73
2022/07/27 10:36:44;;;;;;;8.50;2.40;;;;;;;22.62;51.14;101935.72;5284587;28;20029;-73
2022/07/27 10:39:31;;;;;;;4.07;1.83;;;;;;;24.89;38.73;101933.34;5284853;28;20479;-73
2022/07/27 10:42:21;;;;;;;4.82;1.70;;;;;;;25.84;36.03;101922.63;5284453;28;20043;-73
2022/07/27 10:44:59;;;;;;;5.65;2.03;;;;;;;26.52;35.21;101925.72;5266485;28;20024;-73
2022/07/27 10:47:45;;;;;;;3.67;1.70;;;;;;;28.27;33.01;101912.47;5286675;28;20106;-75
2022/07/27 10:50:18;;;;;;;3.60;1.42;;;;;;;26.14;32.21;101923.56;5285817;28;20322;-75
2022/07/27 10:52:58;;;;;;;6.35;2.10;;;;;;;23.36;37.58;101913.69;5284494;28;20387;-73
2022/07/27 10:55:30;;;;;;;5.32;1.77;;;;;;;22.02;41.49;101912.63;5284743;28;20056;-74
2022/07/27 10:58:17;;;;;;;6.40;1.93;;;;;;;21.22;44.29;101914.13;5284617;28;20064;-73
2022/07/27 11:00:48;;;;;;;3.78;1.60;;;;;;;20.46;45.63;101913.41;5283899;28;20032;-74
2022/07/27 11:03:24;;;;;;;6.77;2.00;;;;;;;20.17;45.48;101903.88;5283921;28;20058;-73
2022/07/27 11:06:11;;;;;;;5.40;1.88;;;;;;;20.38;47.59;101913.72;5286499;28;20048;-72
2022/07/27 11:08:45;;;;;;;6.68;1.70;;;;;;;20.29;46.58;101915.81;5284001;28;20051;-72
2022/07/27 11:11:18;;;;;;;6.20;1.90;;;;;;;20.26;47.77;101910.63;5283341;28;20337;-72
2022/07/27 11:13:53;;;;;;;10.13;2.08;;;;;;;20.27;45.95;101913.22;5283583;28;20075;-72
2022/07/27 11:16:27;;;;;;;4.28;1.70;;;;;;;20.23;47.01;101916.88;5283744;28;20029;-72
2022/07/27 11:19:03;;;;;;;5.53;1.90;;;;;;;20.15;46.91;101914.50;5283680;28;20375;-72
2022/07/27 11:21:36;;;;;;;6.20;2.33;;;;;;;20.34;46.71;101920.03;5284046;28;20021;-72
2022/07/27 11:24:11;;;;;;;5.82;1.80;;;;;;;20.70;47.37;101909.03;5283619;28;20040;-72
2022/07/27 11:26:50;;;;;;;3.75;1.92;;;;;;;21.32;49.98;101911.97;5283886;28;20063;-73
2022/07/27 11:29:23;;;;;;;5.65;1.90;;;;;;;21.51;44.54;101905.94;5283323;28;20028;-73
2022/07/27 11:31:56;;;;;;;4.32;1.70;;;;;;;21.42;44.46;101901.84;5283489;28;20029;-73
2022/07/27 11:34:35;;;;;;;7.20;1.73;;;;;;;21.91;43.16;101898.97;5283465;28;20112;-73
2022/07/27 11:37:18;;;;;;;5.32;1.88;;;;;;;22.27;47.40;101898.31;5283702;28;20032;-73
2022/07/27 11:39:59;;;;;;;2.75;1.42;;;;;;;22.88;43.02;101907.97;5283504;28;20056;-74
2022/07/27 11:42:37;;;;;;;6.50;1.80;;;;;;;23.11;41.68;101905.09;5283300;28;20040;-73
2022/07/27 11:45:09;;;;;;;3.72;1.50;;;;;;;23.53;39.94;101903.06;5283399;28;20510;-73
2022/07/27 11:47:40;;;;;;;5.00;1.60;;;;;;;23.45;39.88;101900.78;5282980;28;20068;-73
2022/07/27 11:50:13;;;;;;;4.20;1.60;;;;;;;23.55;41.60;101895.00;5283045;28;20039;-73
2022/07/27 11:52:53;;;;;;;2.90;1.67;;;;;;;23.42;42.89;101903.59;5283093;28;20040;-74
2022/07/27 11:55:25;;;;;;;5.97;1.95;;;;;;;24.81;36.57;101893.81;5283510;28;20036;-73
2022/07/27 11:58:03;;;;;;;6.77;2.07;;;;;;;27.46;32.96;101903.66;5282737;28;20037;-73